createdAt,value
2022-10-28T07:55:23.291Z,7.73
2022-10-28T08:00:17.739Z,8.00
2022-10-28T08:42:08.507Z,5.80
2022-10-28T08:47:13.497Z,4.83
2022-10-28T09:14:11.351Z,3.63
2022-10-28T09:19:23.252Z,3.90
2022-10-28T09:24:21.414Z,3.53
2022-10-28T09:29:44.315Z,4.33
2022-10-28T09:34:45.570Z,3.60
2022-10-28T09:39:44.564Z,3.23
2022-10-28T09:44:45.806Z,3.07
2022-10-28T09:49:41.041Z,2.97
2022-10-28T09:54:37.319Z,3.50
2022-10-28T09:59:31.142Z,2.87
2022-10-28T10:04:31.565Z,2.97
2022-10-28T10:09:43.917Z,3.20
2022-10-28T10:14:50.767Z,2.70
2022-10-28T10:20:05.790Z,2.50
2022-10-28T10:25:01.343Z,2.35
2022-10-28T10:29:58.274Z,2.58
2022-10-28T10:34:58.552Z,2.50
2022-10-28T10:40:08.814Z,2.30
2022-10-28T10:45:10.435Z,2.40
2022-10-28T10:50:25.953Z,2.72
2022-10-28T10:55:33.319Z,2.22
2022-10-28T11:00:33.370Z,2.10
2022-10-28T11:05:32.298Z,3.97
2022-10-28T11:10:36.394Z,2.28
2022-10-28T11:15:31.565Z,2.20
2022-10-28T11:20:28.714Z,2.17
2022-10-28T11:25:37.825Z,2.70
2022-10-28T11:30:43.490Z,2.40
2022-10-28T11:35:49.286Z,2.40
2022-10-28T11:40:56.283Z,2.30
2022-10-28T11:45:57.114Z,2.28
2022-10-28T11:51:00.894Z,2.60
2022-10-28T11:56:02.294Z,2.30
2022-10-28T12:01:05.507Z,2.35
2022-10-28T12:06:10.885Z,2.40
2022-10-28T12:11:19.759Z,2.15
2022-10-28T12:16:22.339Z,2.28
2022-10-28T12:21:23.493Z,2.10
2022-10-28T12:26:21.567Z,2.45
2022-10-28T12:31:23.577Z,2.30
2022-10-28T12:36:33.123Z,2.20
2022-10-28T12:41:44.210Z,2.50
2022-10-28T12:51:49.784Z,2.38
2022-10-28T12:56:54.639Z,2.00
2022-10-28T13:01:51.691Z,2.50
2022-10-28T13:07:35.213Z,2.60
2022-10-28T13:13:00.922Z,2.83
2022-10-28T13:18:12.773Z,2.63
2022-10-28T13:23:32.796Z,2.72
2022-10-28T13:28:32.176Z,3.08
2022-10-28T13:33:30.022Z,2.63
2022-10-28T13:38:26.309Z,3.17
2022-10-28T13:43:21.813Z,2.85
2022-10-28T13:48:47.054Z,2.40
2022-10-28T13:53:43.912Z,2.75
2022-10-28T13:58:39.321Z,2.78
2022-10-28T14:03:34.931Z,2.53
2022-10-28T14:08:31.289Z,2.75
2022-10-28T14:13:25.934Z,2.80
2022-10-28T14:24:14.822Z,2.90
2022-10-28T14:29:29.588Z,2.83
2022-10-28T14:34:45.466Z,3.00
2022-10-28T14:39:50.186Z,3.72
2022-10-28T14:45:05.035Z,3.90
2022-10-28T14:50:03.193Z,3.60
2022-10-28T14:55:01.279Z,3.20
2022-10-28T14:59:57.136Z,3.40
2022-10-28T15:05:03.796Z,3.80
2022-10-28T15:10:00.152Z,3.65
2022-10-28T15:14:56.693Z,4.20
2022-10-28T15:19:52.531Z,3.50
2022-10-28T15:25:00.210Z,3.72
2022-10-28T15:29:56.830Z,4.05
2022-10-28T15:34:50.998Z,4.90
2022-10-28T15:39:50.511Z,6.28
2022-10-28T15:44:47.339Z,6.30
2022-10-28T15:49:47.014Z,6.28
2022-10-28T15:54:43.200Z,6.88
2022-10-28T15:59:37.439Z,7.20
2022-10-28T16:04:46.222Z,11.20
2022-10-28T16:09:46.867Z,9.57
2022-10-28T16:14:44.112Z,7.63
2022-10-28T16:19:41.727Z,14.57
2022-10-28T16:24:37.280Z,6.22
